Joliet, Illinois
Current Conditions -  °F | °C
As of 8:15 PM on Saturday 22 Nov 2014 (Local Time) from KJOT Reporting Station
Broken Clouds Broken Clouds  
Wind Chill: 51°   Ceiling: 5000
Heat Index: 51°   Visibility: 10mi
Dew Point: 46°   Wind: 10mph
Humidity: 83%   Direction: 210°SSW
Pressure: 29.88"   Gusts: NA
Location:  41.52°N, 88.08°W
Report Text: KJOT 230215Z AUTO 21009KT 10SM SCT021 SCT041 BKN050 10/08 A2988 RMK AO2 T01030075
Loading
Personal Weather Stations






























Interactive Weather Map New forecast layout! Learn more

10-Day Weather Forecast

Advertisements
Track Severe Weather on mobile